createdAt,value
2023-01-17T00:05:06.994Z,20.32
2023-01-17T00:10:13.147Z,20.27
2023-01-17T00:15:16.676Z,20.26
2023-01-17T00:20:40.153Z,20.26
2023-01-17T00:26:01.663Z,20.18
2023-01-17T00:31:03.922Z,20.15
2023-01-17T00:36:06.272Z,20.19
2023-01-17T00:41:10.293Z,20.22
2023-01-17T00:46:30.728Z,20.20
2023-01-17T00:51:52.046Z,20.16
2023-01-17T00:57:13.847Z,20.13
2023-01-17T01:02:34.356Z,20.11
2023-01-17T01:07:54.789Z,20.05
2023-01-17T01:13:16.710Z,20.02
2023-01-17T01:18:36.880Z,19.96
2023-01-17T01:23:57.128Z,19.92
2023-01-17T01:29:18.866Z,19.89
2023-01-17T01:34:21.685Z,19.84
2023-01-17T01:39:24.602Z,19.84
2023-01-17T01:44:45.712Z,19.80
2023-01-17T01:49:48.712Z,19.78
2023-01-17T01:54:53.201Z,19.71
2023-01-17T01:59:58.744Z,19.66
2023-01-17T02:05:04.510Z,19.65
2023-01-17T02:10:07.916Z,19.64
2023-01-17T02:15:12.702Z,19.60
2023-01-17T02:20:32.337Z,19.57
2023-01-17T02:25:48.440Z,19.55
2023-01-17T02:30:53.122Z,19.52
2023-01-17T02:35:59.707Z,19.50
2023-01-17T02:41:05.234Z,19.51
2023-01-17T02:46:09.992Z,19.46
2023-01-17T02:52:00.545Z,19.43
2023-01-17T02:57:12.761Z,19.40
2023-01-17T03:02:22.410Z,19.35
2023-01-17T03:07:26.725Z,19.33
2023-01-17T03:12:29.873Z,19.32
2023-01-17T03:17:34.050Z,19.29
2023-01-17T03:22:36.880Z,19.24
2023-01-17T03:27:39.836Z,19.23
2023-01-17T03:32:43.972Z,19.20
2023-01-17T03:37:46.795Z,19.18
2023-01-17T03:42:49.661Z,19.15
2023-01-17T03:47:53.983Z,19.11
2023-01-17T03:52:56.733Z,19.07
2023-01-17T03:57:59.560Z,19.06
2023-01-17T04:03:03.686Z,19.03
2023-01-17T04:08:07.375Z,19.03
2023-01-17T04:13:10.246Z,19.01
2023-01-17T04:18:14.371Z,18.98
2023-01-17T04:23:17.236Z,18.97
2023-01-17T04:28:20.082Z,18.93
2023-01-17T04:33:24.247Z,18.94
2023-01-17T04:38:27.047Z,18.91
2023-01-17T04:43:29.889Z,18.89
2023-01-17T04:48:34.046Z,18.86
2023-01-17T04:53:36.929Z,18.84
2023-01-17T04:58:39.707Z,18.82
2023-01-17T05:03:43.810Z,18.79
2023-01-17T05:08:46.649Z,18.79
2023-01-17T05:13:49.493Z,18.79
2023-01-17T05:18:53.859Z,18.78
2023-01-17T05:23:56.636Z,18.77
2023-01-17T05:28:59.456Z,18.74
2023-01-17T05:34:03.652Z,18.72
2023-01-17T05:39:06.719Z,18.73
2023-01-17T05:44:09.622Z,18.70
2023-01-17T05:49:13.785Z,18.70
2023-01-17T05:54:17.108Z,18.69
2023-01-17T05:59:28.697Z,18.69
2023-01-17T06:04:40.522Z,18.68
2023-01-17T06:09:43.523Z,18.66
2023-01-17T06:14:46.311Z,18.67
2023-01-17T06:19:50.432Z,18.65
2023-01-17T06:24:53.244Z,18.65
2023-01-17T06:29:56.134Z,18.63
2023-01-17T06:35:00.248Z,18.64
2023-01-17T06:40:03.797Z,18.62
2023-01-17T06:45:07.617Z,18.62
2023-01-17T06:50:13.577Z,18.60
2023-01-17T06:55:16.594Z,18.59
2023-01-17T07:00:20.100Z,18.59
2023-01-17T07:05:24.456Z,18.59
2023-01-17T07:10:27.355Z,18.57
2023-01-17T07:15:30.130Z,18.56
2023-01-17T07:20:34.277Z,18.55
2023-01-17T07:25:37.104Z,18.55
2023-01-17T07:30:39.860Z,18.53
2023-01-17T07:35:44.053Z,18.52
2023-01-17T07:40:46.862Z,18.51
2023-01-17T07:45:50.728Z,18.50
2023-01-17T07:50:55.924Z,18.51
2023-01-17T07:56:01.825Z,18.50
2023-01-17T08:01:05.284Z,18.46
2023-01-17T08:06:16.799Z,18.54
2023-01-17T08:11:19.837Z,18.61
2023-01-17T08:16:22.810Z,18.64
2023-01-17T08:21:26.989Z,18.67
2023-01-17T08:26:29.844Z,18.72
2023-01-17T08:31:33.710Z,17.68
2023-01-17T08:36:37.963Z,17.81
2023-01-17T08:41:40.789Z,18.19
2023-01-17T08:46:44.123Z,18.54
2023-01-17T08:51:48.326Z,18.76
2023-01-17T08:56:52.733Z,18.97
2023-01-17T09:01:58.207Z,19.12
2023-01-17T09:07:03.006Z,19.19
2023-01-17T09:12:06.688Z,19.25
2023-01-17T09:17:09.451Z,19.36
2023-01-17T09:22:13.553Z,19.38
2023-01-17T09:27:16.276Z,19.34
2023-01-17T09:32:19.075Z,19.35
2023-01-17T09:37:23.227Z,19.35
2023-01-17T09:42:28.864Z,19.31
2023-01-17T09:47:34.214Z,19.28
2023-01-17T09:52:38.365Z,19.26
2023-01-17T09:57:44.920Z,19.27
2023-01-17T10:03:02.071Z,19.26
2023-01-17T10:08:12.503Z,19.26
2023-01-17T10:13:24.995Z,19.24
2023-01-17T10:18:41.635Z,19.23
2023-01-17T10:24:03.581Z,19.22
2023-01-17T10:29:07.139Z,19.25
2023-01-17T10:34:13.900Z,19.25
2023-01-17T10:39:20.972Z,19.23
2023-01-17T10:44:26.199Z,19.22
2023-01-17T10:49:29.032Z,19.22
2023-01-17T10:54:51.396Z,19.25
2023-01-17T10:59:54.593Z,19.25
2023-01-17T11:04:57.446Z,19.28
2023-01-17T11:10:01.646Z,19.26
2023-01-17T11:15:07.556Z,19.28
2023-01-17T11:20:16.975Z,19.33
2023-01-17T11:25:23.106Z,19.35
2023-01-17T11:30:29.367Z,19.31
2023-01-17T11:35:32.286Z,19.33
2023-01-17T11:40:39.603Z,19.32
2023-01-17T11:45:42.423Z,19.31
2023-01-17T11:50:47.493Z,19.30
2023-01-17T11:55:59.362Z,19.31
2023-01-17T12:01:07.683Z,19.45
2023-01-17T12:06:12.718Z,19.28
2023-01-17T12:11:19.308Z,19.27
2023-01-17T12:16:30.368Z,19.27
2023-01-17T12:21:38.678Z,19.29
2023-01-17T12:26:43.516Z,19.31
2023-01-17T12:31:48.031Z,19.31
2023-01-17T12:36:53.232Z,19.31
2023-01-17T12:42:00.451Z,19.34
2023-01-17T12:47:04.694Z,19.33
2023-01-17T12:52:12.013Z,19.30
2023-01-17T12:57:16.993Z,19.29
2023-01-17T13:02:23.778Z,19.25
2023-01-17T13:07:30.820Z,19.24
2023-01-17T13:12:35.085Z,19.24
2023-01-17T13:17:40.362Z,19.22
2023-01-17T13:22:43.140Z,19.24
2023-01-17T13:28:02.951Z,19.25
2023-01-17T13:33:30.406Z,19.25
2023-01-17T13:38:38.053Z,19.26
2023-01-17T13:44:03.280Z,19.24
2023-01-17T13:49:23.214Z,19.22
2023-01-17T13:54:31.297Z,19.22
2023-01-17T13:59:35.879Z,19.21
2023-01-17T14:05:15.039Z,19.25
2023-01-17T14:10:34.862Z,19.16
2023-01-17T14:15:49.593Z,17.33
2023-01-17T14:21:04.418Z,18.32
2023-01-17T14:26:36.565Z,18.68
2023-01-17T14:31:40.757Z,18.82
2023-01-17T14:36:43.508Z,18.94
2023-01-17T14:41:46.290Z,18.99
2023-01-17T14:46:50.591Z,19.05
2023-01-17T14:52:02.746Z,19.11
2023-01-17T14:57:24.545Z,19.13
2023-01-17T15:02:28.920Z,19.18
2023-01-17T15:07:32.256Z,19.23
2023-01-17T15:12:38.719Z,19.27
2023-01-17T15:17:42.937Z,19.26
2023-01-17T15:22:45.767Z,19.25
2023-01-17T15:27:48.599Z,19.24
2023-01-17T15:32:53.018Z,19.21
2023-01-17T15:37:57.023Z,19.29
2023-01-17T15:43:00.864Z,19.34
2023-01-17T15:48:33.412Z,19.38
2023-01-17T15:53:38.256Z,19.41
2023-01-17T15:58:41.113Z,19.46
2023-01-17T16:03:54.516Z,19.49
2023-01-17T16:08:57.366Z,19.53
2023-01-17T16:14:00.110Z,19.57
2023-01-17T16:19:04.272Z,19.58
2023-01-17T16:24:09.581Z,19.63
2023-01-17T16:29:12.342Z,19.66
2023-01-17T16:34:16.636Z,19.69
2023-01-17T16:39:19.369Z,19.70
2023-01-17T16:44:22.131Z,19.73
2023-01-17T16:49:26.656Z,19.76
2023-01-17T16:54:29.495Z,19.78
2023-01-17T16:59:42.542Z,19.79
2023-01-17T17:04:54.314Z,19.82
2023-01-17T17:09:57.274Z,19.81
2023-01-17T17:15:00.032Z,19.82
2023-01-17T17:20:04.531Z,19.80
2023-01-17T17:25:07.768Z,19.80
2023-01-17T17:30:12.368Z,19.77
2023-01-17T17:35:17.087Z,19.78
2023-01-17T17:40:20.643Z,19.74
2023-01-17T17:45:23.535Z,19.73
2023-01-17T17:50:27.711Z,19.72
2023-01-17T17:55:30.554Z,19.63
2023-01-17T18:00:33.357Z,19.58
2023-01-17T18:05:39.001Z,19.56
2023-01-17T18:10:42.467Z,19.56
2023-01-17T18:15:45.335Z,19.55
2023-01-17T18:20:49.516Z,19.59
2023-01-17T18:25:52.306Z,19.58
2023-01-17T18:30:55.161Z,19.63
2023-01-17T18:36:00.207Z,19.67
2023-01-17T18:41:03.484Z,19.71
2023-01-17T18:46:06.644Z,19.76
2023-01-17T18:51:11.867Z,19.76
2023-01-17T18:56:16.608Z,19.81
2023-01-17T19:01:20.417Z,19.85
2023-01-17T19:06:25.377Z,19.88
2023-01-17T19:11:28.548Z,19.92
2023-01-17T19:16:32.704Z,19.92
2023-01-17T19:21:36.981Z,19.93
2023-01-17T19:26:39.833Z,19.97
2023-01-17T19:31:43.724Z,19.99
2023-01-17T19:36:48.213Z,19.99
2023-01-17T19:41:51.111Z,20.04
2023-01-17T19:46:53.905Z,20.03
2023-01-17T19:51:58.095Z,20.06
2023-01-17T19:57:01.095Z,20.05
2023-01-17T20:02:04.051Z,20.09
2023-01-17T20:07:08.338Z,20.09
2023-01-17T20:12:12.214Z,20.11
2023-01-17T20:17:14.971Z,20.15
2023-01-17T20:22:19.126Z,20.14
2023-01-17T20:27:26.491Z,20.15
2023-01-17T20:32:29.303Z,20.18
2023-01-17T20:37:33.409Z,20.19
2023-01-17T20:42:36.934Z,20.18
2023-01-17T20:47:39.683Z,20.20
2023-01-17T20:52:43.841Z,20.23
2023-01-17T20:57:46.599Z,20.23
2023-01-17T21:02:49.889Z,20.24
2023-01-17T21:07:54.149Z,20.23
2023-01-17T21:12:56.997Z,20.23
2023-01-17T21:17:59.822Z,20.27
2023-01-17T21:23:08.385Z,20.26
2023-01-17T21:28:11.219Z,20.27
2023-01-17T21:33:14.058Z,20.28
2023-01-17T21:38:18.186Z,20.27
2023-01-17T21:43:21.055Z,20.28
2023-01-17T21:48:23.812Z,20.31
2023-01-17T21:53:29.979Z,20.31
2023-01-17T21:58:44.743Z,20.30
2023-01-17T22:03:49.117Z,20.31
2023-01-17T22:08:53.588Z,20.26
2023-01-17T22:13:58.756Z,20.19
2023-01-17T22:19:01.852Z,20.14
2023-01-17T22:24:07.601Z,20.10
2023-01-17T22:29:10.804Z,20.06
2023-01-17T22:34:13.942Z,20.04
2023-01-17T22:39:18.196Z,19.97
2023-01-17T22:44:21.002Z,19.91
2023-01-17T22:49:24.402Z,19.92
2023-01-17T22:54:28.573Z,19.91
2023-01-17T22:59:33.806Z,19.88
2023-01-17T23:04:36.754Z,19.87
2023-01-17T23:09:40.944Z,19.87
2023-01-17T23:15:01.555Z,19.84
2023-01-17T23:20:04.669Z,19.82
2023-01-17T23:25:10.916Z,19.82
2023-01-17T23:30:14.674Z,19.81
2023-01-17T23:35:18.179Z,19.81
2023-01-17T23:40:22.486Z,19.78
2023-01-17T23:45:25.236Z,19.77
2023-01-17T23:50:28.185Z,19.78
2023-01-17T23:55:32.351Z,19.76
